sensor_id;sensor_type;location;lat;lon;timestamp;temperature;humidity
11597;DHT22;5854;48.072;16.286;2023-09-12T00:01:20;22.70;52.90
11597;DHT22;5854;48.072;16.286;2023-09-12T00:03:47;22.60;53.20
11597;DHT22;5854;48.072;16.286;2023-09-12T00:06:16;22.70;53.20
11597;DHT22;5854;48.072;16.286;2023-09-12T00:08:45;22.60;53.30
11597;DHT22;5854;48.072;16.286;2023-09-12T00:11:12;22.60;53.00
11597;DHT22;5854;48.072;16.286;2023-09-12T00:13:40;22.50;52.70
11597;DHT22;5854;48.072;16.286;2023-09-12T00:16:08;22.60;53.50
11597;DHT22;5854;48.072;16.286;2023-09-12T00:18:36;22.60;53.10
11597;DHT22;5854;48.072;16.286;2023-09-12T00:21:03;22.50;53.30
11597;DHT22;5854;48.072;16.286;2023-09-12T00:23:32;22.30;52.60
11597;DHT22;5854;48.072;16.286;2023-09-12T00:25:59;21.90;53.90
11597;DHT22;5854;48.072;16.286;2023-09-12T00:28:26;22.10;54.40
11597;DHT22;5854;48.072;16.286;2023-09-12T00:30:53;22.10;54.20
11597;DHT22;5854;48.072;16.286;2023-09-12T00:33:21;22.00;54.00
11597;DHT22;5854;48.072;16.286;2023-09-12T00:35:48;22.20;54.20
11597;DHT22;5854;48.072;16.286;2023-09-12T00:38:15;22.30;53.40
11597;DHT22;5854;48.072;16.286;2023-09-12T00:40:43;22.30;53.20
11597;DHT22;5854;48.072;16.286;2023-09-12T00:43:11;21.90;53.30
11597;DHT22;5854;48.072;16.286;2023-09-12T00:45:38;21.70;53.50
11597;DHT22;5854;48.072;16.286;2023-09-12T00:48:06;21.80;55.10
11597;DHT22;5854;48.072;16.286;2023-09-12T00:50:34;22.10;54.10
11597;DHT22;5854;48.072;16.286;2023-09-12T00:53:03;22.10;54.20
11597;DHT22;5854;48.072;16.286;2023-09-12T00:55:32;22.10;53.60
11597;DHT22;5854;48.072;16.286;2023-09-12T00:58:02;22.10;53.80
11597;DHT22;5854;48.072;16.286;2023-09-12T01:00:30;22.10;54.10
11597;DHT22;5854;48.072;16.286;2023-09-12T01:02:58;22.10;53.60
11597;DHT22;5854;48.072;16.286;2023-09-12T01:05:26;22.10;53.60
11597;DHT22;5854;48.072;16.286;2023-09-12T01:07:55;22.20;53.30
11597;DHT22;5854;48.072;16.286;2023-09-12T01:10:22;21.90;53.70
11597;DHT22;5854;48.072;16.286;2023-09-12T01:12:50;22.00;54.30
11597;DHT22;5854;48.072;16.286;2023-09-12T01:15:18;21.90;54.10
11597;DHT22;5854;48.072;16.286;2023-09-12T01:17:46;22.00;54.10
11597;DHT22;5854;48.072;16.286;2023-09-12T01:20:16;22.00;54.10
11597;DHT22;5854;48.072;16.286;2023-09-12T01:22:56;22.00;54.00
11597;DHT22;5854;48.072;16.286;2023-09-12T01:26:05;21.90;53.90
11597;DHT22;5854;48.072;16.286;2023-09-12T01:28:51;21.90;54.20
11597;DHT22;5854;48.072;16.286;2023-09-12T01:31:22;21.90;54.20
11597;DHT22;5854;48.072;16.286;2023-09-12T01:33:55;21.90;54.10
11597;DHT22;5854;48.072;16.286;2023-09-12T01:36:23;21.80;53.60
11597;DHT22;5854;48.072;16.286;2023-09-12T01:38:50;21.70;54.50
11597;DHT22;5854;48.072;16.286;2023-09-12T01:41:17;21.70;54.20
11597;DHT22;5854;48.072;16.286;2023-09-12T01:43:45;21.50;55.00
11597;DHT22;5854;48.072;16.286;2023-09-12T01:46:15;21.60;54.90
11597;DHT22;5854;48.072;16.286;2023-09-12T01:48:44;21.30;55.50
11597;DHT22;5854;48.072;16.286;2023-09-12T01:51:12;21.40;55.40
11597;DHT22;5854;48.072;16.286;2023-09-12T01:53:41;21.60;55.00
11597;DHT22;5854;48.072;16.286;2023-09-12T01:56:09;21.60;54.40
11597;DHT22;5854;48.072;16.286;2023-09-12T01:58:37;21.60;54.60
11597;DHT22;5854;48.072;16.286;2023-09-12T02:01:04;21.60;54.60
11597;DHT22;5854;48.072;16.286;2023-09-12T02:03:33;21.60;55.00
11597;DHT22;5854;48.072;16.286;2023-09-12T02:06:00;21.50;54.80
11597;DHT22;5854;48.072;16.286;2023-09-12T02:08:27;21.50;54.80
11597;DHT22;5854;48.072;16.286;2023-09-12T02:10:55;21.40;54.50
11597;DHT22;5854;48.072;16.286;2023-09-12T02:13:22;21.30;55.30
11597;DHT22;5854;48.072;16.286;2023-09-12T02:15:49;21.50;55.10
11597;DHT22;5854;48.072;16.286;2023-09-12T02:18:16;21.30;55.00
11597;DHT22;5854;48.072;16.286;2023-09-12T02:20:44;21.30;55.40
11597;DHT22;5854;48.072;16.286;2023-09-12T02:23:14;21.30;55.00
11597;DHT22;5854;48.072;16.286;2023-09-12T02:25:41;21.20;55.60
11597;DHT22;5854;48.072;16.286;2023-09-12T02:28:08;21.40;55.30
11597;DHT22;5854;48.072;16.286;2023-09-12T02:30:38;21.30;54.90
11597;DHT22;5854;48.072;16.286;2023-09-12T02:33:06;21.00;55.20
11597;DHT22;5854;48.072;16.286;2023-09-12T02:35:33;21.00;55.90
11597;DHT22;5854;48.072;16.286;2023-09-12T02:38:02;21.20;55.50
11597;DHT22;5854;48.072;16.286;2023-09-12T02:40:29;21.00;56.30
11597;DHT22;5854;48.072;16.286;2023-09-12T02:42:56;20.70;57.00
11597;DHT22;5854;48.072;16.286;2023-09-12T02:45:23;20.60;57.20
11597;DHT22;5854;48.072;16.286;2023-09-12T02:47:50;20.90;56.60
11597;DHT22;5854;48.072;16.286;2023-09-12T02:50:17;21.00;56.20
11597;DHT22;5854;48.072;16.286;2023-09-12T02:52:44;20.90;56.70
11597;DHT22;5854;48.072;16.286;2023-09-12T02:55:13;21.00;56.10
11597;DHT22;5854;48.072;16.286;2023-09-12T02:57:40;20.80;55.90
11597;DHT22;5854;48.072;16.286;2023-09-12T03:00:08;20.70;56.90
11597;DHT22;5854;48.072;16.286;2023-09-12T03:02:36;20.90;56.20
11597;DHT22;5854;48.072;16.286;2023-09-12T03:05:04;20.90;56.00
11597;DHT22;5854;48.072;16.286;2023-09-12T03:07:31;21.00;55.80
11597;DHT22;5854;48.072;16.286;2023-09-12T03:09:59;21.20;55.50
11597;DHT22;5854;48.072;16.286;2023-09-12T03:12:27;21.00;55.40
11597;DHT22;5854;48.072;16.286;2023-09-12T03:14:54;20.80;56.10
11597;DHT22;5854;48.072;16.286;2023-09-12T03:17:23;20.90;56.10
11597;DHT22;5854;48.072;16.286;2023-09-12T03:19:50;20.90;56.10
11597;DHT22;5854;48.072;16.286;2023-09-12T03:22:18;20.90;56.30
11597;DHT22;5854;48.072;16.286;2023-09-12T03:24:45;21.00;55.90
11597;DHT22;5854;48.072;16.286;2023-09-12T03:27:12;21.00;55.70
11597;DHT22;5854;48.072;16.286;2023-09-12T03:29:41;21.00;55.60
11597;DHT22;5854;48.072;16.286;2023-09-12T03:32:08;20.80;56.00
11597;DHT22;5854;48.072;16.286;2023-09-12T03:34:35;20.80;56.10
11597;DHT22;5854;48.072;16.286;2023-09-12T03:37:02;20.80;56.20
11597;DHT22;5854;48.072;16.286;2023-09-12T03:39:29;20.80;56.10
11597;DHT22;5854;48.072;16.286;2023-09-12T03:41:56;20.80;56.00
11597;DHT22;5854;48.072;16.286;2023-09-12T03:44:23;20.80;55.90
11597;DHT22;5854;48.072;16.286;2023-09-12T03:46:52;20.40;56.60
11597;DHT22;5854;48.072;16.286;2023-09-12T03:49:19;20.30;57.40
11597;DHT22;5854;48.072;16.286;2023-09-12T03:51:46;20.50;57.30
11597;DHT22;5854;48.072;16.286;2023-09-12T03:54:13;20.30;57.50
11597;DHT22;5854;48.072;16.286;2023-09-12T03:56:40;20.30;57.60
11597;DHT22;5854;48.072;16.286;2023-09-12T03:59:08;20.40;57.50
11597;DHT22;5854;48.072;16.286;2023-09-12T04:01:35;20.30;57.40
11597;DHT22;5854;48.072;16.286;2023-09-12T04:04:04;20.50;57.40
11597;DHT22;5854;48.072;16.286;2023-09-12T04:06:31;20.30;57.30
11597;DHT22;5854;48.072;16.286;2023-09-12T04:08:58;20.30;57.30
11597;DHT22;5854;48.072;16.286;2023-09-12T04:11:25;20.30;57.60
11597;DHT22;5854;48.072;16.286;2023-09-12T04:13:52;20.00;58.10
11597;DHT22;5854;48.072;16.286;2023-09-12T04:16:19;20.30;57.70
11597;DHT22;5854;48.072;16.286;2023-09-12T04:18:46;20.40;57.20
11597;DHT22;5854;48.072;16.286;2023-09-12T04:21:15;20.30;57.40
11597;DHT22;5854;48.072;16.286;2023-09-12T04:23:42;20.40;57.20
11597;DHT22;5854;48.072;16.286;2023-09-12T04:26:09;20.50;56.80
11597;DHT22;5854;48.072;16.286;2023-09-12T04:28:36;20.30;57.20
11597;DHT22;5854;48.072;16.286;2023-09-12T04:31:03;20.00;57.80
11597;DHT22;5854;48.072;16.286;2023-09-12T04:33:30;20.20;58.00
11597;DHT22;5854;48.072;16.286;2023-09-12T04:36:00;20.30;57.30
11597;DHT22;5854;48.072;16.286;2023-09-12T04:38:30;20.30;57.10
11597;DHT22;5854;48.072;16.286;2023-09-12T04:41:01;20.40;56.90
11597;DHT22;5854;48.072;16.286;2023-09-12T04:43:30;20.40;56.80
11597;DHT22;5854;48.072;16.286;2023-09-12T04:45:58;20.20;57.20
11597;DHT22;5854;48.072;16.286;2023-09-12T04:48:25;20.30;57.10
11597;DHT22;5854;48.072;16.286;2023-09-12T04:50:52;20.30;56.90
11597;DHT22;5854;48.072;16.286;2023-09-12T04:53:19;20.40;56.60
11597;DHT22;5854;48.072;16.286;2023-09-12T04:55:47;20.40;57.10
11597;DHT22;5854;48.072;16.286;2023-09-12T04:58:15;20.50;56.50
11597;DHT22;5854;48.072;16.286;2023-09-12T05:00:42;20.50;56.80
11597;DHT22;5854;48.072;16.286;2023-09-12T05:03:09;20.50;56.30
11597;DHT22;5854;48.072;16.286;2023-09-12T05:05:36;20.50;56.00
11597;DHT22;5854;48.072;16.286;2023-09-12T05:08:03;20.20;58.30
11597;DHT22;5854;48.072;16.286;2023-09-12T05:10:31;20.10;59.40
11597;DHT22;5854;48.072;16.286;2023-09-12T05:13:00;19.70;61.70
11597;DHT22;5854;48.072;16.286;2023-09-12T05:15:27;18.70;67.50
11597;DHT22;5854;48.072;16.286;2023-09-12T05:17:54;18.20;71.00
11597;DHT22;5854;48.072;16.286;2023-09-12T05:20:21;18.00;73.50
11597;DHT22;5854;48.072;16.286;2023-09-12T05:22:49;18.10;74.10
11597;DHT22;5854;48.072;16.286;2023-09-12T05:25:16;17.80;76.80
11597;DHT22;5854;48.072;16.286;2023-09-12T05:27:43;17.60;79.00
11597;DHT22;5854;48.072;16.286;2023-09-12T05:30:12;17.70;80.00
11597;DHT22;5854;48.072;16.286;2023-09-12T05:32:41;18.00;78.60
11597;DHT22;5854;48.072;16.286;2023-09-12T05:35:08;18.00;80.20
11597;DHT22;5854;48.072;16.286;2023-09-12T05:37:36;17.80;83.00
11597;DHT22;5854;48.072;16.286;2023-09-12T05:40:07;17.80;82.70
11597;DHT22;5854;48.072;16.286;2023-09-12T05:42:37;18.10;82.60
11597;DHT22;5854;48.072;16.286;2023-09-12T05:45:05;18.10;82.40
11597;DHT22;5854;48.072;16.286;2023-09-12T05:47:34;18.60;78.10
11597;DHT22;5854;48.072;16.286;2023-09-12T05:50:01;19.10;74.20
11597;DHT22;5854;48.072;16.286;2023-09-12T05:52:31;19.50;71.60
11597;DHT22;5854;48.072;16.286;2023-09-12T05:54:58;19.80;69.50
11597;DHT22;5854;48.072;16.286;2023-09-12T05:57:25;20.00;69.10
11597;DHT22;5854;48.072;16.286;2023-09-12T05:59:53;20.10;67.80
11597;DHT22;5854;48.072;16.286;2023-09-12T06:02:21;20.30;65.80
11597;DHT22;5854;48.072;16.286;2023-09-12T06:04:49;20.50;64.70
11597;DHT22;5854;48.072;16.286;2023-09-12T06:07:17;20.70;65.00
11597;DHT22;5854;48.072;16.286;2023-09-12T06:09:45;20.90;64.30
11597;DHT22;5854;48.072;16.286;2023-09-12T06:12:12;21.10;61.00
11597;DHT22;5854;48.072;16.286;2023-09-12T06:14:39;21.50;59.50
11597;DHT22;5854;48.072;16.286;2023-09-12T06:17:06;21.70;59.80
11597;DHT22;5854;48.072;16.286;2023-09-12T06:19:33;22.00;59.60
11597;DHT22;5854;48.072;16.286;2023-09-12T06:22:02;22.50;58.20
11597;DHT22;5854;48.072;16.286;2023-09-12T06:24:30;22.80;55.70
11597;DHT22;5854;48.072;16.286;2023-09-12T06:26:57;23.10;54.20
11597;DHT22;5854;48.072;16.286;2023-09-12T06:29:24;23.30;52.70
11597;DHT22;5854;48.072;16.286;2023-09-12T06:31:51;23.50;53.00
11597;DHT22;5854;48.072;16.286;2023-09-12T06:34:18;23.60;51.30
11597;DHT22;5854;48.072;16.286;2023-09-12T06:36:45;23.50;52.10
11597;DHT22;5854;48.072;16.286;2023-09-12T06:39:14;23.30;52.30
11597;DHT22;5854;48.072;16.286;2023-09-12T06:41:41;23.10;53.40
11597;DHT22;5854;48.072;16.286;2023-09-12T06:44:08;23.10;52.70
11597;DHT22;5854;48.072;16.286;2023-09-12T06:46:35;22.90;53.30
11597;DHT22;5854;48.072;16.286;2023-09-12T06:49:03;22.80;54.00
11597;DHT22;5854;48.072;16.286;2023-09-12T06:51:30;22.80;54.30
11597;DHT22;5854;48.072;16.286;2023-09-12T06:53:57;22.80;54.50
11597;DHT22;5854;48.072;16.286;2023-09-12T06:56:26;22.80;53.50
11597;DHT22;5854;48.072;16.286;2023-09-12T06:58:53;22.80;55.30
11597;DHT22;5854;48.072;16.286;2023-09-12T07:01:20;22.90;52.50
11597;DHT22;5854;48.072;16.286;2023-09-12T07:03:48;22.90;53.00
11597;DHT22;5854;48.072;16.286;2023-09-12T07:06:19;23.30;54.30
11597;DHT22;5854;48.072;16.286;2023-09-12T07:08:46;24.00;53.40
11597;DHT22;5854;48.072;16.286;2023-09-12T07:11:13;24.50;53.40
11597;DHT22;5854;48.072;16.286;2023-09-12T07:13:42;25.20;51.60
11597;DHT22;5854;48.072;16.286;2023-09-12T07:16:09;25.80;48.70
11597;DHT22;5854;48.072;16.286;2023-09-12T07:18:37;24.50;51.00
11597;DHT22;5854;48.072;16.286;2023-09-12T07:21:05;24.60;51.40
11597;DHT22;5854;48.072;16.286;2023-09-12T07:23:32;25.50;47.60
11597;DHT22;5854;48.072;16.286;2023-09-12T07:25:59;26.40;44.90
11597;DHT22;5854;48.072;16.286;2023-09-12T07:28:29;27.00;45.30
11597;DHT22;5854;48.072;16.286;2023-09-12T07:30:58;26.40;43.10
11597;DHT22;5854;48.072;16.286;2023-09-12T07:33:25;26.30;44.50
11597;DHT22;5854;48.072;16.286;2023-09-12T07:35:53;25.90;45.30
11597;DHT22;5854;48.072;16.286;2023-09-12T07:38:20;25.40;46.00
11597;DHT22;5854;48.072;16.286;2023-09-12T07:40:48;25.10;47.40
11597;DHT22;5854;48.072;16.286;2023-09-12T07:43:15;24.80;50.80
11597;DHT22;5854;48.072;16.286;2023-09-12T07:45:42;25.30;49.50
11597;DHT22;5854;48.072;16.286;2023-09-12T07:48:11;25.60;48.80
11597;DHT22;5854;48.072;16.286;2023-09-12T07:50:38;26.50;46.50
11597;DHT22;5854;48.072;16.286;2023-09-12T07:53:05;25.90;47.20
11597;DHT22;5854;48.072;16.286;2023-09-12T07:55:36;25.30;48.70
11597;DHT22;5854;48.072;16.286;2023-09-12T07:58:11;25.00;48.70
11597;DHT22;5854;48.072;16.286;2023-09-12T08:00:38;24.70;51.90
11597;DHT22;5854;48.072;16.286;2023-09-12T08:03:05;24.30;52.10
11597;DHT22;5854;48.072;16.286;2023-09-12T08:05:33;24.10;49.60
11597;DHT22;5854;48.072;16.286;2023-09-12T08:08:00;24.00;54.20
11597;DHT22;5854;48.072;16.286;2023-09-12T08:10:27;24.10;53.10
11597;DHT22;5854;48.072;16.286;2023-09-12T08:12:55;24.20;53.40
11597;DHT22;5854;48.072;16.286;2023-09-12T08:15:22;24.30;53.00
11597;DHT22;5854;48.072;16.286;2023-09-12T08:17:49;24.50;50.40
11597;DHT22;5854;48.072;16.286;2023-09-12T08:20:19;24.40;51.70
11597;DHT22;5854;48.072;16.286;2023-09-12T08:22:47;24.20;50.40
11597;DHT22;5854;48.072;16.286;2023-09-12T08:25:15;24.10;52.90
11597;DHT22;5854;48.072;16.286;2023-09-12T08:27:42;24.10;52.80
11597;DHT22;5854;48.072;16.286;2023-09-12T08:30:11;24.30;50.80
11597;DHT22;5854;48.072;16.286;2023-09-12T08:32:38;24.40;53.40
11597;DHT22;5854;48.072;16.286;2023-09-12T08:35:09;24.60;53.80
11597;DHT22;5854;48.072;16.286;2023-09-12T08:37:38;24.60;52.90
11597;DHT22;5854;48.072;16.286;2023-09-12T08:40:09;24.70;52.00
11597;DHT22;5854;48.072;16.286;2023-09-12T08:42:39;24.80;53.10
11597;DHT22;5854;48.072;16.286;2023-09-12T08:45:12;25.10;52.60
11597;DHT22;5854;48.072;16.286;2023-09-12T08:47:42;25.10;50.90
11597;DHT22;5854;48.072;16.286;2023-09-12T08:50:12;25.00;49.60
11597;DHT22;5854;48.072;16.286;2023-09-12T08:52:40;25.20;52.20
11597;DHT22;5854;48.072;16.286;2023-09-12T08:55:10;25.10;48.40
11597;DHT22;5854;48.072;16.286;2023-09-12T08:57:40;24.90;50.40
11597;DHT22;5854;48.072;16.286;2023-09-12T09:00:09;24.90;50.30
11597;DHT22;5854;48.072;16.286;2023-09-12T09:02:39;24.80;47.90
11597;DHT22;5854;48.072;16.286;2023-09-12T09:05:07;24.90;51.40
11597;DHT22;5854;48.072;16.286;2023-09-12T09:07:36;25.00;49.60
11597;DHT22;5854;48.072;16.286;2023-09-12T09:10:05;24.90;48.30
11597;DHT22;5854;48.072;16.286;2023-09-12T09:12:35;25.00;52.70
11597;DHT22;5854;48.072;16.286;2023-09-12T09:15:20;25.20;49.20
11597;DHT22;5854;48.072;16.286;2023-09-12T09:17:49;25.50;52.60
11597;DHT22;5854;48.072;16.286;2023-09-12T09:20:25;25.80;49.70
11597;DHT22;5854;48.072;16.286;2023-09-12T09:22:59;25.80;49.50
11597;DHT22;5854;48.072;16.286;2023-09-12T09:25:30;25.90;49.10
11597;DHT22;5854;48.072;16.286;2023-09-12T09:28:02;25.90;47.00
11597;DHT22;5854;48.072;16.286;2023-09-12T09:30:41;26.00;46.40
11597;DHT22;5854;48.072;16.286;2023-09-12T09:33:09;26.20;49.80
11597;DHT22;5854;48.072;16.286;2023-09-12T09:35:38;26.20;49.30
11597;DHT22;5854;48.072;16.286;2023-09-12T09:38:06;26.20;48.70
11597;DHT22;5854;48.072;16.286;2023-09-12T09:40:35;26.30;46.80
11597;DHT22;5854;48.072;16.286;2023-09-12T09:43:04;26.20;48.80
11597;DHT22;5854;48.072;16.286;2023-09-12T09:45:31;26.30;47.30
11597;DHT22;5854;48.072;16.286;2023-09-12T09:48:03;26.30;48.00
11597;DHT22;5854;48.072;16.286;2023-09-12T09:50:33;26.40;47.50
11597;DHT22;5854;48.072;16.286;2023-09-12T09:53:02;26.20;47.30
11597;DHT22;5854;48.072;16.286;2023-09-12T09:55:34;26.30;49.00
11597;DHT22;5854;48.072;16.286;2023-09-12T09:58:02;26.40;48.60
11597;DHT22;5854;48.072;16.286;2023-09-12T10:00:33;26.60;47.60
11597;DHT22;5854;48.072;16.286;2023-09-12T10:03:03;26.60;48.50
11597;DHT22;5854;48.072;16.286;2023-09-12T10:05:32;26.70;46.80
11597;DHT22;5854;48.072;16.286;2023-09-12T10:07:59;26.50;47.70
11597;DHT22;5854;48.072;16.286;2023-09-12T10:10:31;26.70;47.40
11597;DHT22;5854;48.072;16.286;2023-09-12T10:13:04;26.60;45.30
11597;DHT22;5854;48.072;16.286;2023-09-12T10:15:33;26.30;44.60
11597;DHT22;5854;48.072;16.286;2023-09-12T10:18:04;26.30;48.60
11597;DHT22;5854;48.072;16.286;2023-09-12T10:20:40;26.60;47.70
11597;DHT22;5854;48.072;16.286;2023-09-12T10:23:14;26.70;47.80
11597;DHT22;5854;48.072;16.286;2023-09-12T10:25:48;26.70;47.80
11597;DHT22;5854;48.072;16.286;2023-09-12T10:28:17;27.00;47.00
11597;DHT22;5854;48.072;16.286;2023-09-12T10:30:45;27.00;46.70
11597;DHT22;5854;48.072;16.286;2023-09-12T10:33:13;27.00;45.50
11597;DHT22;5854;48.072;16.286;2023-09-12T10:35:44;26.80;44.20
11597;DHT22;5854;48.072;16.286;2023-09-12T10:38:13;26.70;47.20
11597;DHT22;5854;48.072;16.286;2023-09-12T10:40:44;26.90;46.00
11597;DHT22;5854;48.072;16.286;2023-09-12T10:43:13;27.10;46.60
11597;DHT22;5854;48.072;16.286;2023-09-12T10:45:43;27.10;45.60
11597;DHT22;5854;48.072;16.286;2023-09-12T10:48:11;27.10;45.90
11597;DHT22;5854;48.072;16.286;2023-09-12T10:50:39;27.10;44.50
11597;DHT22;5854;48.072;16.286;2023-09-12T10:53:11;27.00;47.30
11597;DHT22;5854;48.072;16.286;2023-09-12T10:55:39;27.40;46.20
11597;DHT22;5854;48.072;16.286;2023-09-12T10:58:08;27.20;44.40
11597;DHT22;5854;48.072;16.286;2023-09-12T11:00:36;27.00;45.30
11597;DHT22;5854;48.072;16.286;2023-09-12T11:03:37;26.90;43.80
11597;DHT22;5854;48.072;16.286;2023-09-12T11:06:19;26.80;44.30
11597;DHT22;5854;48.072;16.286;2023-09-12T11:09:15;26.60;45.10
11597;DHT22;5854;48.072;16.286;2023-09-12T11:11:45;26.70;45.90
11597;DHT22;5854;48.072;16.286;2023-09-12T11:14:16;26.90;45.30
11597;DHT22;5854;48.072;16.286;2023-09-12T11:16:43;27.10;45.30
11597;DHT22;5854;48.072;16.286;2023-09-12T11:19:51;27.40;45.50
11597;DHT22;5854;48.072;16.286;2023-09-12T11:22:26;27.20;45.60
11597;DHT22;5854;48.072;16.286;2023-09-12T11:24:54;27.40;43.70
11597;DHT22;5854;48.072;16.286;2023-09-12T11:27:23;27.60;44.40
11597;DHT22;5854;48.072;16.286;2023-09-12T11:29:52;27.90;43.00
11597;DHT22;5854;48.072;16.286;2023-09-12T11:32:27;27.90;42.30
11597;DHT22;5854;48.072;16.286;2023-09-12T11:34:59;27.60;42.50
11597;DHT22;5854;48.072;16.286;2023-09-12T11:37:27;27.80;43.10
11597;DHT22;5854;48.072;16.286;2023-09-12T11:39:55;27.90;41.30
11597;DHT22;5854;48.072;16.286;2023-09-12T11:42:24;27.90;41.60
11597;DHT22;5854;48.072;16.286;2023-09-12T11:44:52;27.70;42.10
11597;DHT22;5854;48.072;16.286;2023-09-12T11:47:19;27.70;42.20
11597;DHT22;5854;48.072;16.286;2023-09-12T11:49:46;27.50;41.80
11597;DHT22;5854;48.072;16.286;2023-09-12T11:52:15;27.60;41.10
11597;DHT22;5854;48.072;16.286;2023-09-12T11:54:44;27.50;41.60
11597;DHT22;5854;48.072;16.286;2023-09-12T11:57:13;27.60;42.10
11597;DHT22;5854;48.072;16.286;2023-09-12T11:59:42;27.60;42.60
11597;DHT22;5854;48.072;16.286;2023-09-12T12:02:10;27.80;41.20
11597;DHT22;5854;48.072;16.286;2023-09-12T12:04:38;27.90;40.70
11597;DHT22;5854;48.072;16.286;2023-09-12T12:07:06;27.70;41.20
11597;DHT22;5854;48.072;16.286;2023-09-12T12:09:35;27.90;41.80
11597;DHT22;5854;48.072;16.286;2023-09-12T12:12:10;28.00;40.00
11597;DHT22;5854;48.072;16.286;2023-09-12T12:14:39;28.10;39.30
11597;DHT22;5854;48.072;16.286;2023-09-12T12:17:08;28.20;38.70
11597;DHT22;5854;48.072;16.286;2023-09-12T12:19:35;28.30;38.70
11597;DHT22;5854;48.072;16.286;2023-09-12T12:22:03;28.30;39.70
11597;DHT22;5854;48.072;16.286;2023-09-12T12:24:39;28.20;39.50
11597;DHT22;5854;48.072;16.286;2023-09-12T12:27:08;28.10;40.40
11597;DHT22;5854;48.072;16.286;2023-09-12T12:29:39;27.90;40.40
11597;DHT22;5854;48.072;16.286;2023-09-12T12:32:10;27.90;38.90
11597;DHT22;5854;48.072;16.286;2023-09-12T12:34:37;28.00;39.60
11597;DHT22;5854;48.072;16.286;2023-09-12T12:37:05;28.20;39.30
11597;DHT22;5854;48.072;16.286;2023-09-12T12:39:32;28.30;40.60
11597;DHT22;5854;48.072;16.286;2023-09-12T12:42:01;28.30;39.90
11597;DHT22;5854;48.072;16.286;2023-09-12T12:44:35;28.30;40.30
11597;DHT22;5854;48.072;16.286;2023-09-12T12:47:07;28.20;39.70
11597;DHT22;5854;48.072;16.286;2023-09-12T12:49:38;28.20;41.20
11597;DHT22;5854;48.072;16.286;2023-09-12T12:52:08;28.40;39.90
11597;DHT22;5854;48.072;16.286;2023-09-12T12:54:36;28.50;38.00
11597;DHT22;5854;48.072;16.286;2023-09-12T13:56:20;29.10;35.80
11597;DHT22;5854;48.072;16.286;2023-09-12T13:58:47;29.00;36.70
11597;DHT22;5854;48.072;16.286;2023-09-12T14:01:16;29.00;37.10
11597;DHT22;5854;48.072;16.286;2023-09-12T14:03:48;28.90;37.00
11597;DHT22;5854;48.072;16.286;2023-09-12T14:06:21;28.90;36.10
11597;DHT22;5854;48.072;16.286;2023-09-12T14:09:18;28.90;38.10
11597;DHT22;5854;48.072;16.286;2023-09-12T14:11:46;28.90;36.70
11597;DHT22;5854;48.072;16.286;2023-09-12T14:14:13;28.90;36.80
11597;DHT22;5854;48.072;16.286;2023-09-12T14:16:42;28.90;36.10
11597;DHT22;5854;48.072;16.286;2023-09-12T14:19:09;28.90;38.40
11597;DHT22;5854;48.072;16.286;2023-09-12T14:21:37;28.80;40.10
11597;DHT22;5854;48.072;16.286;2023-09-12T14:24:05;28.60;37.80
11597;DHT22;5854;48.072;16.286;2023-09-12T14:31:49;28.80;36.60
11597;DHT22;5854;48.072;16.286;2023-09-12T15:05:54;28.60;42.70
11597;DHT22;5854;48.072;16.286;2023-09-12T15:13:33;28.10;47.60
11597;DHT22;5854;48.072;16.286;2023-09-12T15:16:01;28.10;46.40
11597;DHT22;5854;48.072;16.286;2023-09-12T15:20:59;28.40;43.80
11597;DHT22;5854;48.072;16.286;2023-09-12T15:23:26;28.50;43.60
11597;DHT22;5854;48.072;16.286;2023-09-12T15:30:58;28.80;41.60
11597;DHT22;5854;48.072;16.286;2023-09-12T15:33:28;28.80;41.40
11597;DHT22;5854;48.072;16.286;2023-09-12T15:38:51;28.80;43.60
11597;DHT22;5854;48.072;16.286;2023-09-12T15:41:32;28.80;43.80
11597;DHT22;5854;48.072;16.286;2023-09-12T15:44:00;28.60;43.00
11597;DHT22;5854;48.072;16.286;2023-09-12T15:46:29;28.50;43.80
11597;DHT22;5854;48.072;16.286;2023-09-12T15:48:56;28.50;45.40
11597;DHT22;5854;48.072;16.286;2023-09-12T15:51:23;28.30;46.00
11597;DHT22;5854;48.072;16.286;2023-09-12T15:53:52;28.10;48.10
11597;DHT22;5854;48.072;16.286;2023-09-12T15:56:19;27.90;45.60
11597;DHT22;5854;48.072;16.286;2023-09-12T15:58:49;27.90;46.80
11597;DHT22;5854;48.072;16.286;2023-09-12T16:03:50;27.60;48.90
11597;DHT22;5854;48.072;16.286;2023-09-12T16:06:18;27.40;50.10
11597;DHT22;5854;48.072;16.286;2023-09-12T16:21:31;27.00;51.30
11597;DHT22;5854;48.072;16.286;2023-09-12T16:23:59;27.10;52.90
11597;DHT22;5854;48.072;16.286;2023-09-12T16:26:26;27.30;52.20
11597;DHT22;5854;48.072;16.286;2023-09-12T16:28:53;27.50;51.30
11597;DHT22;5854;48.072;16.286;2023-09-12T16:31:21;27.60;50.60
11597;DHT22;5854;48.072;16.286;2023-09-12T16:33:54;27.70;50.50
11597;DHT22;5854;48.072;16.286;2023-09-12T16:36:22;27.80;50.10
11597;DHT22;5854;48.072;16.286;2023-09-12T16:38:52;27.90;50.10
11597;DHT22;5854;48.072;16.286;2023-09-12T16:41:24;27.90;49.60
11597;DHT22;5854;48.072;16.286;2023-09-12T16:43:51;28.10;49.80
11597;DHT22;5854;48.072;16.286;2023-09-12T16:46:18;28.10;49.50
11597;DHT22;5854;48.072;16.286;2023-09-12T16:48:46;28.20;49.00
11597;DHT22;5854;48.072;16.286;2023-09-12T16:51:13;28.20;48.80
11597;DHT22;5854;48.072;16.286;2023-09-12T16:53:40;28.10;48.90
11597;DHT22;5854;48.072;16.286;2023-09-12T16:56:09;28.10;48.80
11597;DHT22;5854;48.072;16.286;2023-09-12T16:58:36;28.10;48.90
11597;DHT22;5854;48.072;16.286;2023-09-12T17:01:03;28.10;48.90
11597;DHT22;5854;48.072;16.286;2023-09-12T17:03:30;28.10;49.10
11597;DHT22;5854;48.072;16.286;2023-09-12T17:05:57;28.00;49.10
11597;DHT22;5854;48.072;16.286;2023-09-12T17:08:25;28.00;49.00
11597;DHT22;5854;48.072;16.286;2023-09-12T17:10:52;28.00;49.00
11597;DHT22;5854;48.072;16.286;2023-09-12T17:13:21;28.00;49.00
11597;DHT22;5854;48.072;16.286;2023-09-12T17:15:49;27.90;48.30
11597;DHT22;5854;48.072;16.286;2023-09-12T17:18:16;27.90;48.80
11597;DHT22;5854;48.072;16.286;2023-09-12T17:20:43;27.80;49.00
11597;DHT22;5854;48.072;16.286;2023-09-12T17:23:10;27.70;49.20
11597;DHT22;5854;48.072;16.286;2023-09-12T17:25:37;27.60;48.70
11597;DHT22;5854;48.072;16.286;2023-09-12T17:28:05;27.40;49.90
11597;DHT22;5854;48.072;16.286;2023-09-12T17:30:33;27.40;50.00
11597;DHT22;5854;48.072;16.286;2023-09-12T17:33:03;27.50;49.70
11597;DHT22;5854;48.072;16.286;2023-09-12T17:35:30;27.50;49.80
11597;DHT22;5854;48.072;16.286;2023-09-12T17:37:59;27.40;49.10
11597;DHT22;5854;48.072;16.286;2023-09-12T17:40:26;27.20;50.20
11597;DHT22;5854;48.072;16.286;2023-09-12T17:42:53;27.30;50.20
11597;DHT22;5854;48.072;16.286;2023-09-12T17:45:23;27.20;50.40
11597;DHT22;5854;48.072;16.286;2023-09-12T17:47:52;27.20;50.10